sensor_id;sensor_type;location;lat;lon;timestamp;P1;durP1;ratioP1;P2;durP2;ratioP2
77042;SDS011;65975;53.936;27.540;2023-02-28T00:02:20;13.70;;;8.40;;
77042;SDS011;65975;53.936;27.540;2023-02-28T00:04:46;16.40;;;8.93;;
77042;SDS011;65975;53.936;27.540;2023-02-28T00:07:27;13.53;;;7.07;;
77042;SDS011;65975;53.936;27.540;2023-02-28T00:09:53;14.93;;;8.17;;
77042;SDS011;65975;53.936;27.540;2023-02-28T00:12:18;16.10;;;8.73;;
77042;SDS011;65975;53.936;27.540;2023-02-28T00:14:44;14.83;;;8.50;;
77042;SDS011;65975;53.936;27.540;2023-02-28T00:17:09;13.80;;;8.07;;
77042;SDS011;65975;53.936;27.540;2023-02-28T00:19:35;19.70;;;9.77;;
77042;SDS011;65975;53.936;27.540;2023-02-28T00:22:00;18.87;;;9.93;;
77042;SDS011;65975;53.936;27.540;2023-02-28T00:24:26;13.53;;;8.50;;
77042;SDS011;65975;53.936;27.540;2023-02-28T00:26:51;17.27;;;9.00;;
77042;SDS011;65975;53.936;27.540;2023-02-28T00:29:17;17.37;;;8.43;;
77042;SDS011;65975;53.936;27.540;2023-02-28T00:31:42;19.70;;;9.57;;
77042;SDS011;65975;53.936;27.540;2023-02-28T00:34:07;22.53;;;10.60;;
77042;SDS011;65975;53.936;27.540;2023-02-28T00:36:33;16.40;;;9.30;;
77042;SDS011;65975;53.936;27.540;2023-02-28T00:38:58;19.00;;;10.17;;
77042;SDS011;65975;53.936;27.540;2023-02-28T00:41:24;19.83;;;10.33;;
77042;SDS011;65975;53.936;27.540;2023-02-28T00:43:49;22.80;;;11.53;;
77042;SDS011;65975;53.936;27.540;2023-02-28T00:46:15;20.07;;;11.47;;
77042;SDS011;65975;53.936;27.540;2023-02-28T00:48:40;24.80;;;11.30;;
77042;SDS011;65975;53.936;27.540;2023-02-28T00:51:06;22.87;;;11.43;;
77042;SDS011;65975;53.936;27.540;2023-02-28T00:53:31;23.23;;;12.73;;
77042;SDS011;65975;53.936;27.540;2023-02-28T00:56:00;19.87;;;10.23;;
77042;SDS011;65975;53.936;27.540;2023-02-28T00:58:26;17.77;;;9.43;;
77042;SDS011;65975;53.936;27.540;2023-02-28T01:00:52;23.00;;;11.23;;
77042;SDS011;65975;53.936;27.540;2023-02-28T01:03:19;26.80;;;12.67;;
77042;SDS011;65975;53.936;27.540;2023-02-28T01:05:45;24.70;;;11.67;;
77042;SDS011;65975;53.936;27.540;2023-02-28T01:08:11;24.60;;;12.07;;
77042;SDS011;65975;53.936;27.540;2023-02-28T01:10:38;30.43;;;12.50;;
77042;SDS011;65975;53.936;27.540;2023-02-28T01:13:04;27.83;;;13.80;;
77042;SDS011;65975;53.936;27.540;2023-02-28T01:15:30;23.43;;;12.03;;
77042;SDS011;65975;53.936;27.540;2023-02-28T01:17:57;24.00;;;12.17;;
77042;SDS011;65975;53.936;27.540;2023-02-28T01:20:22;28.03;;;13.43;;
77042;SDS011;65975;53.936;27.540;2023-02-28T01:22:48;26.20;;;13.67;;
77042;SDS011;65975;53.936;27.540;2023-02-28T01:25:13;27.87;;;13.60;;
77042;SDS011;65975;53.936;27.540;2023-02-28T01:27:39;24.27;;;12.43;;
77042;SDS011;65975;53.936;27.540;2023-02-28T01:30:05;25.07;;;12.93;;
77042;SDS011;65975;53.936;27.540;2023-02-28T01:32:32;29.10;;;14.23;;
77042;SDS011;65975;53.936;27.540;2023-02-28T01:34:57;27.27;;;12.50;;
77042;SDS011;65975;53.936;27.540;2023-02-28T01:37:23;29.17;;;12.20;;
77042;SDS011;65975;53.936;27.540;2023-02-28T01:39:48;29.23;;;13.53;;
77042;SDS011;65975;53.936;27.540;2023-02-28T01:42:14;27.40;;;12.10;;
77042;SDS011;65975;53.936;27.540;2023-02-28T01:47:28;27.00;;;12.07;;
77042;SDS011;65975;53.936;27.540;2023-02-28T01:50:02;32.40;;;12.17;;
77042;SDS011;65975;53.936;27.540;2023-02-28T01:52:32;26.17;;;12.93;;
77042;SDS011;65975;53.936;27.540;2023-02-28T01:54:59;26.00;;;12.30;;
77042;SDS011;65975;53.936;27.540;2023-02-28T01:57:28;25.43;;;12.00;;
77042;SDS011;65975;53.936;27.540;2023-02-28T02:00:24;26.60;;;12.87;;
77042;SDS011;65975;53.936;27.540;2023-02-28T02:02:53;27.73;;;13.67;;
77042;SDS011;65975;53.936;27.540;2023-02-28T02:05:24;29.87;;;12.63;;
77042;SDS011;65975;53.936;27.540;2023-02-28T02:07:55;26.20;;;13.33;;
77042;SDS011;65975;53.936;27.540;2023-02-28T02:10:31;27.07;;;12.23;;
77042;SDS011;65975;53.936;27.540;2023-02-28T02:13:05;25.07;;;12.90;;
77042;SDS011;65975;53.936;27.540;2023-02-28T02:18:25;27.07;;;13.33;;
77042;SDS011;65975;53.936;27.540;2023-02-28T02:26:45;29.47;;;14.07;;
77042;SDS011;65975;53.936;27.540;2023-02-28T02:36:33;27.63;;;14.83;;
77042;SDS011;65975;53.936;27.540;2023-02-28T02:41:52;29.70;;;14.40;;
77042;SDS011;65975;53.936;27.540;2023-02-28T02:44:36;25.47;;;12.47;;
77042;SDS011;65975;53.936;27.540;2023-02-28T02:47:13;24.17;;;12.80;;
77042;SDS011;65975;53.936;27.540;2023-02-28T02:49:46;27.17;;;13.90;;
77042;SDS011;65975;53.936;27.540;2023-02-28T02:52:16;30.38;;;13.93;;
77042;SDS011;65975;53.936;27.540;2023-02-28T02:54:46;31.17;;;15.53;;
77042;SDS011;65975;53.936;27.540;2023-02-28T02:57:15;25.30;;;12.67;;
77042;SDS011;65975;53.936;27.540;2023-02-28T02:59:47;30.27;;;13.50;;
77042;SDS011;65975;53.936;27.540;2023-02-28T03:02:15;31.10;;;15.00;;
77042;SDS011;65975;53.936;27.540;2023-02-28T03:04:42;26.13;;;15.03;;
77042;SDS011;65975;53.936;27.540;2023-02-28T03:07:10;31.80;;;13.27;;
77042;SDS011;65975;53.936;27.540;2023-02-28T03:09:36;30.17;;;13.67;;
77042;SDS011;65975;53.936;27.540;2023-02-28T03:12:02;31.63;;;14.03;;
77042;SDS011;65975;53.936;27.540;2023-02-28T03:26:01;31.13;;;13.90;;
77042;SDS011;65975;53.936;27.540;2023-02-28T03:30:51;32.93;;;13.63;;
77042;SDS011;65975;53.936;27.540;2023-02-28T03:36:17;39.13;;;17.17;;
77042;SDS011;65975;53.936;27.540;2023-02-28T03:38:48;36.40;;;15.33;;
77042;SDS011;65975;53.936;27.540;2023-02-28T03:43:56;33.60;;;16.43;;
77042;SDS011;65975;53.936;27.540;2023-02-28T03:46:27;42.55;;;17.67;;
77042;SDS011;65975;53.936;27.540;2023-02-28T03:51:58;36.23;;;16.70;;
77042;SDS011;65975;53.936;27.540;2023-02-28T03:54:31;40.97;;;16.97;;
77042;SDS011;65975;53.936;27.540;2023-02-28T03:57:05;34.97;;;17.07;;
77042;SDS011;65975;53.936;27.540;2023-02-28T03:59:38;44.33;;;19.30;;
77042;SDS011;65975;53.936;27.540;2023-02-28T04:02:09;35.90;;;15.87;;
77042;SDS011;65975;53.936;27.540;2023-02-28T04:04:35;37.37;;;17.03;;
77042;SDS011;65975;53.936;27.540;2023-02-28T04:07:02;32.33;;;16.40;;
77042;SDS011;65975;53.936;27.540;2023-02-28T04:09:29;37.17;;;16.30;;
77042;SDS011;65975;53.936;27.540;2023-02-28T04:11:55;35.10;;;16.27;;
77042;SDS011;65975;53.936;27.540;2023-02-28T04:14:21;35.97;;;16.63;;
77042;SDS011;65975;53.936;27.540;2023-02-28T04:16:47;35.70;;;17.63;;
77042;SDS011;65975;53.936;27.540;2023-02-28T04:19:14;34.97;;;17.83;;
77042;SDS011;65975;53.936;27.540;2023-02-28T04:21:40;39.07;;;17.47;;
77042;SDS011;65975;53.936;27.540;2023-02-28T04:24:08;40.30;;;17.37;;
77042;SDS011;65975;53.936;27.540;2023-02-28T04:26:39;39.10;;;17.57;;
77042;SDS011;65975;53.936;27.540;2023-02-28T04:29:08;38.20;;;16.00;;
77042;SDS011;65975;53.936;27.540;2023-02-28T04:31:34;38.10;;;16.10;;
77042;SDS011;65975;53.936;27.540;2023-02-28T04:34:00;32.30;;;15.47;;
77042;SDS011;65975;53.936;27.540;2023-02-28T04:36:26;31.17;;;16.13;;
77042;SDS011;65975;53.936;27.540;2023-02-28T04:38:51;38.17;;;17.33;;
77042;SDS011;65975;53.936;27.540;2023-02-28T04:41:17;39.03;;;16.30;;
77042;SDS011;65975;53.936;27.540;2023-02-28T04:43:42;37.73;;;17.40;;
77042;SDS011;65975;53.936;27.540;2023-02-28T04:46:08;33.13;;;15.83;;
77042;SDS011;65975;53.936;27.540;2023-02-28T04:48:35;36.80;;;16.23;;
77042;SDS011;65975;53.936;27.540;2023-02-28T04:51:03;34.13;;;16.23;;
77042;SDS011;65975;53.936;27.540;2023-02-28T04:53:31;40.73;;;16.67;;
77042;SDS011;65975;53.936;27.540;2023-02-28T04:55:57;40.97;;;16.97;;
77042;SDS011;65975;53.936;27.540;2023-02-28T04:58:25;38.53;;;16.13;;
77042;SDS011;65975;53.936;27.540;2023-02-28T05:00:51;36.70;;;16.60;;
77042;SDS011;65975;53.936;27.540;2023-02-28T05:03:17;39.40;;;16.67;;
77042;SDS011;65975;53.936;27.540;2023-02-28T05:05:43;38.60;;;17.73;;
77042;SDS011;65975;53.936;27.540;2023-02-28T05:08:09;36.33;;;16.07;;
77042;SDS011;65975;53.936;27.540;2023-02-28T05:10:35;38.27;;;18.13;;
77042;SDS011;65975;53.936;27.540;2023-02-28T05:13:01;39.80;;;18.83;;
77042;SDS011;65975;53.936;27.540;2023-02-28T05:15:26;39.07;;;16.87;;
77042;SDS011;65975;53.936;27.540;2023-02-28T05:17:52;39.33;;;19.60;;
77042;SDS011;65975;53.936;27.540;2023-02-28T05:20:17;37.67;;;18.37;;
77042;SDS011;65975;53.936;27.540;2023-02-28T05:22:43;40.93;;;20.43;;
77042;SDS011;65975;53.936;27.540;2023-02-28T05:25:13;41.10;;;20.27;;
77042;SDS011;65975;53.936;27.540;2023-02-28T05:27:43;58.00;;;29.77;;
77042;SDS011;65975;53.936;27.540;2023-02-28T05:30:09;77.93;;;36.17;;
77042;SDS011;65975;53.936;27.540;2023-02-28T05:32:37;47.67;;;20.60;;
77042;SDS011;65975;53.936;27.540;2023-02-28T05:35:03;36.20;;;17.73;;
77042;SDS011;65975;53.936;27.540;2023-02-28T05:37:29;32.23;;;18.00;;
77042;SDS011;65975;53.936;27.540;2023-02-28T05:39:54;42.60;;;18.90;;
77042;SDS011;65975;53.936;27.540;2023-02-28T05:42:20;33.27;;;14.93;;
77042;SDS011;65975;53.936;27.540;2023-02-28T05:44:46;34.77;;;17.50;;
77042;SDS011;65975;53.936;27.540;2023-02-28T05:47:11;31.83;;;16.80;;
77042;SDS011;65975;53.936;27.540;2023-02-28T05:49:40;34.37;;;16.07;;
77042;SDS011;65975;53.936;27.540;2023-02-28T05:52:06;34.30;;;16.00;;
77042;SDS011;65975;53.936;27.540;2023-02-28T05:54:31;37.80;;;17.37;;
77042;SDS011;65975;53.936;27.540;2023-02-28T05:56:57;36.97;;;16.80;;
77042;SDS011;65975;53.936;27.540;2023-02-28T05:59:23;33.10;;;15.53;;
77042;SDS011;65975;53.936;27.540;2023-02-28T06:01:48;37.00;;;15.93;;
77042;SDS011;65975;53.936;27.540;2023-02-28T06:04:14;37.97;;;15.30;;
77042;SDS011;65975;53.936;27.540;2023-02-28T06:06:46;33.57;;;16.17;;
77042;SDS011;65975;53.936;27.540;2023-02-28T06:09:12;34.90;;;15.60;;
77042;SDS011;65975;53.936;27.540;2023-02-28T06:11:40;29.40;;;15.90;;
77042;SDS011;65975;53.936;27.540;2023-02-28T06:14:06;25.53;;;13.77;;
77042;SDS011;65975;53.936;27.540;2023-02-28T06:16:33;34.80;;;16.63;;
77042;SDS011;65975;53.936;27.540;2023-02-28T06:18:59;36.40;;;16.17;;
77042;SDS011;65975;53.936;27.540;2023-02-28T06:21:28;40.50;;;18.07;;
77042;SDS011;65975;53.936;27.540;2023-02-28T06:23:55;27.40;;;13.47;;
77042;SDS011;65975;53.936;27.540;2023-02-28T06:26:21;30.27;;;15.47;;
77042;SDS011;65975;53.936;27.540;2023-02-28T06:28:46;34.73;;;16.77;;
77042;SDS011;65975;53.936;27.540;2023-02-28T06:31:14;25.30;;;12.60;;
77042;SDS011;65975;53.936;27.540;2023-02-28T06:33:41;31.37;;;15.47;;
77042;SDS011;65975;53.936;27.540;2023-02-28T06:36:08;33.80;;;16.10;;
77042;SDS011;65975;53.936;27.540;2023-02-28T06:38:35;34.87;;;15.40;;
77042;SDS011;65975;53.936;27.540;2023-02-28T06:41:01;31.27;;;15.70;;
77042;SDS011;65975;53.936;27.540;2023-02-28T06:43:28;32.37;;;15.37;;
77042;SDS011;65975;53.936;27.540;2023-02-28T06:45:57;40.57;;;17.60;;
77042;SDS011;65975;53.936;27.540;2023-02-28T06:48:24;37.07;;;15.27;;
77042;SDS011;65975;53.936;27.540;2023-02-28T06:50:51;29.83;;;15.23;;
77042;SDS011;65975;53.936;27.540;2023-02-28T06:53:17;27.33;;;15.03;;
77042;SDS011;65975;53.936;27.540;2023-02-28T06:55:42;30.70;;;13.40;;
77042;SDS011;65975;53.936;27.540;2023-02-28T06:58:08;35.47;;;15.67;;
77042;SDS011;65975;53.936;27.540;2023-02-28T07:00:42;27.73;;;12.00;;
77042;SDS011;65975;53.936;27.540;2023-02-28T07:03:09;26.30;;;13.70;;
77042;SDS011;65975;53.936;27.540;2023-02-28T07:05:35;20.23;;;11.77;;
77042;SDS011;65975;53.936;27.540;2023-02-28T07:08:01;28.60;;;13.80;;
77042;SDS011;65975;53.936;27.540;2023-02-28T07:10:28;27.23;;;13.57;;
77042;SDS011;65975;53.936;27.540;2023-02-28T07:12:54;31.80;;;12.07;;
77042;SDS011;65975;53.936;27.540;2023-02-28T07:15:19;34.07;;;14.77;;
77042;SDS011;65975;53.936;27.540;2023-02-28T07:17:45;22.47;;;12.53;;
77042;SDS011;65975;53.936;27.540;2023-02-28T07:20:10;25.83;;;12.87;;
77042;SDS011;65975;53.936;27.540;2023-02-28T07:22:36;26.27;;;13.67;;
77042;SDS011;65975;53.936;27.540;2023-02-28T07:25:04;30.33;;;13.87;;
77042;SDS011;65975;53.936;27.540;2023-02-28T07:27:29;24.60;;;12.60;;
77042;SDS011;65975;53.936;27.540;2023-02-28T07:29:55;31.53;;;14.63;;
77042;SDS011;65975;53.936;27.540;2023-02-28T07:32:20;30.77;;;15.03;;
77042;SDS011;65975;53.936;27.540;2023-02-28T07:34:46;34.93;;;15.00;;
77042;SDS011;65975;53.936;27.540;2023-02-28T07:37:11;27.80;;;12.63;;
77042;SDS011;65975;53.936;27.540;2023-02-28T07:39:37;28.10;;;14.77;;
77042;SDS011;65975;53.936;27.540;2023-02-28T07:42:06;27.03;;;13.50;;
77042;SDS011;65975;53.936;27.540;2023-02-28T07:44:35;29.50;;;12.07;;
77042;SDS011;65975;53.936;27.540;2023-02-28T07:47:05;31.67;;;14.17;;
77042;SDS011;65975;53.936;27.540;2023-02-28T07:49:34;31.83;;;14.90;;
77042;SDS011;65975;53.936;27.540;2023-02-28T07:52:03;27.07;;;13.67;;
77042;SDS011;65975;53.936;27.540;2023-02-28T07:54:29;29.73;;;14.23;;
77042;SDS011;65975;53.936;27.540;2023-02-28T07:56:55;29.10;;;12.77;;
77042;SDS011;65975;53.936;27.540;2023-02-28T07:59:21;33.93;;;14.27;;
77042;SDS011;65975;53.936;27.540;2023-02-28T08:01:46;28.33;;;14.53;;
77042;SDS011;65975;53.936;27.540;2023-02-28T08:04:14;31.77;;;13.77;;
77042;SDS011;65975;53.936;27.540;2023-02-28T08:06:40;33.13;;;15.30;;
77042;SDS011;65975;53.936;27.540;2023-02-28T08:09:05;27.47;;;14.10;;
77042;SDS011;65975;53.936;27.540;2023-02-28T08:11:31;29.63;;;14.33;;
77042;SDS011;65975;53.936;27.540;2023-02-28T08:13:56;29.43;;;13.77;;
77042;SDS011;65975;53.936;27.540;2023-02-28T08:16:22;33.45;;;15.00;;
77042;SDS011;65975;53.936;27.540;2023-02-28T08:18:51;31.48;;;14.27;;
77042;SDS011;65975;53.936;27.540;2023-02-28T08:21:17;31.55;;;14.60;;
77042;SDS011;65975;53.936;27.540;2023-02-28T08:23:45;25.20;;;13.67;;
77042;SDS011;65975;53.936;27.540;2023-02-28T08:26:12;32.22;;;13.50;;
77042;SDS011;65975;53.936;27.540;2023-02-28T08:28:38;24.55;;;12.30;;
77042;SDS011;65975;53.936;27.540;2023-02-28T08:31:11;26.58;;;12.30;;
77042;SDS011;65975;53.936;27.540;2023-02-28T08:33:38;28.75;;;12.35;;
77042;SDS011;65975;53.936;27.540;2023-02-28T08:36:04;20.95;;;10.60;;
77042;SDS011;65975;53.936;27.540;2023-02-28T08:38:30;24.58;;;12.93;;
77042;SDS011;65975;53.936;27.540;2023-02-28T08:41:00;24.88;;;11.07;;
77042;SDS011;65975;53.936;27.540;2023-02-28T08:43:31;23.55;;;11.63;;
77042;SDS011;65975;53.936;27.540;2023-02-28T08:45:56;19.77;;;9.30;;
77042;SDS011;65975;53.936;27.540;2023-02-28T08:48:26;26.67;;;11.93;;
77042;SDS011;65975;53.936;27.540;2023-02-28T08:50:55;21.58;;;10.55;;
77042;SDS011;65975;53.936;27.540;2023-02-28T08:53:32;22.58;;;11.23;;
77042;SDS011;65975;53.936;27.540;2023-02-28T08:56:07;22.95;;;9.50;;
77042;SDS011;65975;53.936;27.540;2023-02-28T08:58:33;19.70;;;9.55;;
77042;SDS011;65975;53.936;27.540;2023-02-28T09:01:00;22.00;;;9.48;;
77042;SDS011;65975;53.936;27.540;2023-02-28T09:03:31;14.63;;;6.97;;
77042;SDS011;65975;53.936;27.540;2023-02-28T09:05:58;15.15;;;8.90;;
77042;SDS011;65975;53.936;27.540;2023-02-28T09:08:26;21.23;;;9.50;;
77042;SDS011;65975;53.936;27.540;2023-02-28T09:10:54;13.30;;;7.35;;
77042;SDS011;65975;53.936;27.540;2023-02-28T09:13:22;17.88;;;7.43;;
77042;SDS011;65975;53.936;27.540;2023-02-28T09:15:47;15.18;;;7.03;;
77042;SDS011;65975;53.936;27.540;2023-02-28T09:18:13;16.42;;;7.75;;
77042;SDS011;65975;53.936;27.540;2023-02-28T09:20:39;15.82;;;7.45;;
77042;SDS011;65975;53.936;27.540;2023-02-28T09:23:06;19.05;;;8.57;;
77042;SDS011;65975;53.936;27.540;2023-02-28T09:25:33;15.73;;;8.55;;
77042;SDS011;65975;53.936;27.540;2023-02-28T09:27:59;13.32;;;7.35;;
77042;SDS011;65975;53.936;27.540;2023-02-28T09:30:25;14.57;;;8.80;;
77042;SDS011;65975;53.936;27.540;2023-02-28T09:32:50;12.48;;;7.20;;
77042;SDS011;65975;53.936;27.540;2023-02-28T09:35:17;16.60;;;8.30;;
77042;SDS011;65975;53.936;27.540;2023-02-28T09:37:43;11.93;;;7.20;;
77042;SDS011;65975;53.936;27.540;2023-02-28T09:40:10;14.02;;;8.35;;
77042;SDS011;65975;53.936;27.540;2023-02-28T09:42:37;15.82;;;8.48;;
77042;SDS011;65975;53.936;27.540;2023-02-28T09:45:06;16.10;;;8.45;;
77042;SDS011;65975;53.936;27.540;2023-02-28T09:47:43;21.40;;;8.43;;
77042;SDS011;65975;53.936;27.540;2023-02-28T09:55:59;15.07;;;7.30;;
77042;SDS011;65975;53.936;27.540;2023-02-28T10:01:25;10.98;;;6.82;;
77042;SDS011;65975;53.936;27.540;2023-02-28T10:07:15;14.15;;;6.47;;
77042;SDS011;65975;53.936;27.540;2023-02-28T10:09:47;14.82;;;6.85;;
77042;SDS011;65975;53.936;27.540;2023-02-28T10:12:17;12.35;;;6.72;;
77042;SDS011;65975;53.936;27.540;2023-02-28T10:14:45;15.52;;;7.55;;
77042;SDS011;65975;53.936;27.540;2023-02-28T10:17:19;12.25;;;6.45;;
77042;SDS011;65975;53.936;27.540;2023-02-28T10:22:17;12.15;;;7.00;;
77042;SDS011;65975;53.936;27.540;2023-02-28T10:24:47;13.13;;;6.70;;
77042;SDS011;65975;53.936;27.540;2023-02-28T10:27:18;6.95;;;4.65;;
77042;SDS011;65975;53.936;27.540;2023-02-28T10:29:55;9.18;;;5.82;;
77042;SDS011;65975;53.936;27.540;2023-02-28T10:32:24;8.75;;;5.72;;
77042;SDS011;65975;53.936;27.540;2023-02-28T10:37:40;6.50;;;4.82;;
77042;SDS011;65975;53.936;27.540;2023-02-28T10:42:42;9.45;;;6.00;;
77042;SDS011;65975;53.936;27.540;2023-02-28T10:45:21;9.27;;;5.25;;
77042;SDS011;65975;53.936;27.540;2023-02-28T10:53:14;9.38;;;4.65;;
77042;SDS011;65975;53.936;27.540;2023-02-28T10:55:41;10.43;;;5.45;;
77042;SDS011;65975;53.936;27.540;2023-02-28T10:58:22;13.48;;;5.55;;
77042;SDS011;65975;53.936;27.540;2023-02-28T11:00:49;10.75;;;4.88;;
77042;SDS011;65975;53.936;27.540;2023-02-28T11:05:55;13.38;;;6.55;;
77042;SDS011;65975;53.936;27.540;2023-02-28T11:08:21;6.15;;;4.53;;
77042;SDS011;65975;53.936;27.540;2023-02-28T11:10:47;11.75;;;5.53;;
77042;SDS011;65975;53.936;27.540;2023-02-28T11:13:19;14.43;;;6.40;;
77042;SDS011;65975;53.936;27.540;2023-02-28T11:15:54;9.13;;;5.70;;
77042;SDS011;65975;53.936;27.540;2023-02-28T11:18:23;10.55;;;6.15;;
77042;SDS011;65975;53.936;27.540;2023-02-28T11:20:54;9.32;;;5.80;;
77042;SDS011;65975;53.936;27.540;2023-02-28T11:23:24;9.80;;;5.68;;
77042;SDS011;65975;53.936;27.540;2023-02-28T11:25:52;10.45;;;6.05;;
77042;SDS011;65975;53.936;27.540;2023-02-28T11:28:28;11.60;;;6.40;;
77042;SDS011;65975;53.936;27.540;2023-02-28T11:31:00;11.52;;;6.22;;
77042;SDS011;65975;53.936;27.540;2023-02-28T11:33:46;11.15;;;6.38;;
77042;SDS011;65975;53.936;27.540;2023-02-28T11:36:18;10.80;;;6.57;;
77042;SDS011;65975;53.936;27.540;2023-02-28T11:38:55;11.10;;;7.03;;
77042;SDS011;65975;53.936;27.540;2023-02-28T11:50:04;12.02;;;7.30;;
77042;SDS011;65975;53.936;27.540;2023-02-28T11:52:54;11.27;;;6.43;;
77042;SDS011;65975;53.936;27.540;2023-02-28T12:03:37;14.35;;;7.03;;
77042;SDS011;65975;53.936;27.540;2023-02-28T12:09:27;11.75;;;6.30;;
77042;SDS011;65975;53.936;27.540;2023-02-28T12:12:22;12.25;;;7.75;;
77042;SDS011;65975;53.936;27.540;2023-02-28T12:23:46;11.75;;;6.80;;
77042;SDS011;65975;53.936;27.540;2023-02-28T12:28:43;12.20;;;7.07;;
77042;SDS011;65975;53.936;27.540;2023-02-28T12:31:18;9.23;;;6.15;;
77042;SDS011;65975;53.936;27.540;2023-02-28T12:33:50;12.07;;;6.50;;
77042;SDS011;65975;53.936;27.540;2023-02-28T12:36:19;10.55;;;6.57;;
77042;SDS011;65975;53.936;27.540;2023-02-28T12:38:52;11.63;;;6.15;;
77042;SDS011;65975;53.936;27.540;2023-02-28T12:41:27;10.63;;;6.68;;
77042;SDS011;65975;53.936;27.540;2023-02-28T12:44:42;11.13;;;6.85;;
77042;SDS011;65975;53.936;27.540;2023-02-28T12:47:15;11.90;;;7.40;;
77042;SDS011;65975;53.936;27.540;2023-02-28T12:49:46;13.00;;;7.22;;
77042;SDS011;65975;53.936;27.540;2023-02-28T12:52:13;10.13;;;6.60;;
77042;SDS011;65975;53.936;27.540;2023-02-28T12:55:00;14.82;;;7.43;;
77042;SDS011;65975;53.936;27.540;2023-02-28T13:11:47;10.13;;;6.50;;
77042;SDS011;65975;53.936;27.540;2023-02-28T13:14:20;10.07;;;6.65;;
77042;SDS011;65975;53.936;27.540;2023-02-28T13:19:28;8.75;;;5.68;;
77042;SDS011;65975;53.936;27.540;2023-02-28T13:21:55;9.48;;;5.57;;
77042;SDS011;65975;53.936;27.540;2023-02-28T13:39:50;10.45;;;5.72;;
77042;SDS011;65975;53.936;27.540;2023-02-28T13:47:39;9.63;;;6.07;;
77042;SDS011;65975;53.936;27.540;2023-02-28T13:50:39;10.82;;;6.07;;
77042;SDS011;65975;53.936;27.540;2023-02-28T13:58:54;9.15;;;5.68;;
77042;SDS011;65975;53.936;27.540;2023-02-28T14:05:13;9.88;;;5.03;;
77042;SDS011;65975;53.936;27.540;2023-02-28T14:07:46;9.73;;;4.82;;
77042;SDS011;65975;53.936;27.540;2023-02-28T14:16:04;9.43;;;4.90;;
77042;SDS011;65975;53.936;27.540;2023-02-28T14:18:32;8.25;;;5.32;;
77042;SDS011;65975;53.936;27.540;2023-02-28T14:37:36;6.93;;;5.45;;
77042;SDS011;65975;53.936;27.540;2023-02-28T14:40:04;7.97;;;4.13;;
77042;SDS011;65975;53.936;27.540;2023-02-28T14:42:37;8.27;;;4.82;;
77042;SDS011;65975;53.936;27.540;2023-02-28T14:45:16;8.80;;;4.93;;
77042;SDS011;65975;53.936;27.540;2023-02-28T14:47:44;6.28;;;3.67;;
77042;SDS011;65975;53.936;27.540;2023-02-28T14:53:15;8.43;;;4.53;;
77042;SDS011;65975;53.936;27.540;2023-02-28T14:55:44;11.57;;;5.80;;
77042;SDS011;65975;53.936;27.540;2023-02-28T14:58:22;8.15;;;5.13;;
77042;SDS011;65975;53.936;27.540;2023-02-28T15:00:54;9.85;;;4.75;;
77042;SDS011;65975;53.936;27.540;2023-02-28T15:03:29;8.18;;;4.38;;
77042;SDS011;65975;53.936;27.540;2023-02-28T15:06:03;8.57;;;5.03;;
77042;SDS011;65975;53.936;27.540;2023-02-28T15:08:32;9.05;;;5.18;;
77042;SDS011;65975;53.936;27.540;2023-02-28T15:13:46;8.18;;;4.80;;
77042;SDS011;65975;53.936;27.540;2023-02-28T15:16:21;8.45;;;4.63;;
77042;SDS011;65975;53.936;27.540;2023-02-28T15:21:51;9.50;;;5.75;;
77042;SDS011;65975;53.936;27.540;2023-02-28T15:26:59;8.52;;;5.45;;
77042;SDS011;65975;53.936;27.540;2023-02-28T15:29:29;6.45;;;4.55;;
77042;SDS011;65975;53.936;27.540;2023-02-28T15:32:06;7.05;;;4.30;;
77042;SDS011;65975;53.936;27.540;2023-02-28T15:51:22;12.43;;;6.57;;
77042;SDS011;65975;53.936;27.540;2023-02-28T15:53:54;12.63;;;6.43;;
77042;SDS011;65975;53.936;27.540;2023-02-28T15:56:24;11.73;;;5.40;;
77042;SDS011;65975;53.936;27.540;2023-02-28T15:58:55;10.68;;;5.50;;
77042;SDS011;65975;53.936;27.540;2023-02-28T16:01:27;11.55;;;5.93;;
77042;SDS011;65975;53.936;27.540;2023-02-28T16:03:59;10.65;;;7.03;;
77042;SDS011;65975;53.936;27.540;2023-02-28T16:06:38;11.70;;;6.32;;
77042;SDS011;65975;53.936;27.540;2023-02-28T16:09:23;11.85;;;5.82;;
77042;SDS011;65975;53.936;27.540;2023-02-28T16:11:50;11.32;;;5.93;;
77042;SDS011;65975;53.936;27.540;2023-02-28T16:14:21;12.38;;;5.65;;
77042;SDS011;65975;53.936;27.540;2023-02-28T16:16:53;14.70;;;6.90;;
77042;SDS011;65975;53.936;27.540;2023-02-28T16:19:20;11.25;;;6.80;;
77042;SDS011;65975;53.936;27.540;2023-02-28T16:21:46;9.32;;;6.43;;
77042;SDS011;65975;53.936;27.540;2023-02-28T16:24:13;11.70;;;5.95;;
77042;SDS011;65975;53.936;27.540;2023-02-28T16:26:39;13.65;;;6.47;;
77042;SDS011;65975;53.936;27.540;2023-02-28T16:29:06;12.98;;;6.95;;
77042;SDS011;65975;53.936;27.540;2023-02-28T16:31:35;13.50;;;7.22;;
77042;SDS011;65975;53.936;27.540;2023-02-28T16:34:02;10.07;;;5.93;;
77042;SDS011;65975;53.936;27.540;2023-02-28T16:36:29;8.82;;;4.88;;
77042;SDS011;65975;53.936;27.540;2023-02-28T16:38:55;10.50;;;6.00;;
77042;SDS011;65975;53.936;27.540;2023-02-28T16:41:22;16.08;;;6.85;;
77042;SDS011;65975;53.936;27.540;2023-02-28T16:43:51;12.05;;;5.88;;
77042;SDS011;65975;53.936;27.540;2023-02-28T16:46:19;19.98;;;9.65;;
77042;SDS011;65975;53.936;27.540;2023-02-28T16:48:46;11.63;;;5.72;;
77042;SDS011;65975;53.936;27.540;2023-02-28T16:51:14;14.65;;;6.78;;
77042;SDS011;65975;53.936;27.540;2023-02-28T16:53:41;10.75;;;6.63;;
77042;SDS011;65975;53.936;27.540;2023-02-28T16:56:11;11.40;;;5.57;;
77042;SDS011;65975;53.936;27.540;2023-02-28T16:58:40;13.07;;;7.13;;
77042;SDS011;65975;53.936;27.540;2023-02-28T17:01:06;13.55;;;6.22;;
77042;SDS011;65975;53.936;27.540;2023-02-28T17:03:31;12.63;;;5.88;;
77042;SDS011;65975;53.936;27.540;2023-02-28T17:05:57;9.73;;;5.90;;
77042;SDS011;65975;53.936;27.540;2023-02-28T17:08:22;11.60;;;5.88;;
77042;SDS011;65975;53.936;27.540;2023-02-28T17:10:48;9.80;;;5.70;;
77042;SDS011;65975;53.936;27.540;2023-02-28T17:13:13;12.00;;;6.28;;
77042;SDS011;65975;53.936;27.540;2023-02-28T17:15:39;12.63;;;5.50;;
77042;SDS011;65975;53.936;27.540;2023-02-28T17:18:05;11.77;;;5.47;;
77042;SDS011;65975;53.936;27.540;2023-02-28T17:20:31;10.88;;;5.72;;
77042;SDS011;65975;53.936;27.540;2023-02-28T17:22:57;14.32;;;6.05;;
77042;SDS011;65975;53.936;27.540;2023-02-28T17:25:23;10.30;;;5.28;;
77042;SDS011;65975;53.936;27.540;2023-02-28T17:27:49;8.50;;;5.05;;
77042;SDS011;65975;53.936;27.540;2023-02-28T17:30:24;12.00;;;5.93;;
77042;SDS011;65975;53.936;27.540;2023-02-28T17:32:54;9.38;;;5.15;;
77042;SDS011;65975;53.936;27.540;2023-02-28T17:35:20;11.57;;;5.43;;
77042;SDS011;65975;53.936;27.540;2023-02-28T17:37:46;11.48;;;5.15;;
77042;SDS011;65975;53.936;27.540;2023-02-28T17:40:15;9.63;;;5.15;;
77042;SDS011;65975;53.936;27.540;2023-02-28T17:42:43;9.10;;;4.90;;
77042;SDS011;65975;53.936;27.540;2023-02-28T17:45:09;9.15;;;5.05;;
77042;SDS011;65975;53.936;27.540;2023-02-28T17:47:36;9.32;;;4.95;;